Time;durP1;ratioP1;P1;durP2;ratioP2;P2;SDS_P1;SDS_P2;PMS_P1;PMS_P2;Temp;Humidity;BMP_temperature;BMP_pressure;BME280_temperature;BME280_humidity;BME280_pressure;Samples;Min_cycle;Max_cycle;Signal;HPM_P1;HPM_P2
2021/12/23 00:01:21;;;;;;;43.10;20.48;;;-3272.80;96.90;;;;;;4960532;28;20050;-78
2021/12/23 00:03:47;;;;;;;51.30;20.42;;;-3272.90;97.00;;;;;;4964695;28;20646;-78
2021/12/23 00:06:12;;;;;;;52.42;21.33;;;-3272.90;97.00;;;;;;4966643;28;20062;-74
2021/12/23 00:08:38;;;;;;;52.33;21.90;;;-3272.90;97.00;;;;;;4968471;28;20719;-78
2021/12/23 00:11:04;;;;;;;56.17;21.10;;;-3273.00;97.10;;;;;;4963024;28;20464;-74
2021/12/23 00:13:29;;;;;;;51.42;21.42;;;-3273.00;97.10;;;;;;4961070;28;20070;-74
2021/12/23 00:23:49;;;;;;;54.33;21.33;;;-3273.10;97.10;;;;;;4964466;28;20065;-75
2021/12/23 00:26:15;;;;;;;48.13;20.50;;;-3273.10;97.10;;;;;;4963261;28;20035;-75
2021/12/23 00:28:41;;;;;;;55.05;22.17;;;-3273.10;97.00;;;;;;4957771;28;20051;-76
2021/12/23 00:31:06;;;;;;;51.67;21.90;;;-3273.20;97.10;;;;;;4954479;28;20058;-75
2021/12/23 00:33:35;;;;;;;44.83;18.95;;;-3273.20;97.00;;;;;;4959451;28;20058;-77
2021/12/23 00:36:03;;;;;;;52.10;20.65;;;-3273.20;97.00;;;;;;4966163;28;20026;-77
2021/12/23 00:38:34;;;;;;;49.08;20.27;;;-3273.20;97.00;;;;;;4967353;28;20031;-75
2021/12/23 00:41:02;;;;;;;48.40;21.75;;;-3273.20;96.90;;;;;;4959922;28;20075;-75
2021/12/23 00:43:29;;;;;;;53.45;21.77;;;-3273.30;96.90;;;;;;4958271;28;20062;-74
2021/12/23 00:45:55;;;;;;;51.72;21.02;;;-3273.30;96.90;;;;;;4962958;28;20101;-76
2021/12/23 00:48:21;;;;;;;54.13;20.52;;;-3273.30;96.90;;;;;;4966707;28;20494;-76
2021/12/23 00:50:47;;;;;;;55.28;21.27;;;-3273.30;96.80;;;;;;4965756;28;20041;-76
2021/12/23 00:53:22;;;;;;;44.90;19.98;;;-3273.30;96.90;;;;;;4965946;28;20042;-75
2021/12/23 00:55:51;;;;;;;40.95;19.73;;;-3273.40;96.80;;;;;;4950582;28;20586;-78
2021/12/23 00:58:17;;;;;;;46.10;21.25;;;-3273.40;96.90;;;;;;4969308;28;20026;-74
2021/12/23 01:00:44;;;;;;;46.83;20.67;;;-3273.40;96.80;;;;;;4960361;28;20030;-74
2021/12/23 01:03:10;;;;;;;49.28;21.02;;;-3273.40;96.80;;;;;;4964680;28;20034;-74
2021/12/23 01:05:35;;;;;;;51.13;21.60;;;-3273.50;96.80;;;;;;4963921;28;20030;-74
2021/12/23 01:08:01;;;;;;;51.08;21.05;;;-3273.50;96.80;;;;;;4954555;28;20033;-75
2021/12/23 01:10:27;;;;;;;43.83;20.85;;;-3273.60;96.80;;;;;;4961887;28;20075;-76
2021/12/23 01:13:02;;;;;;;43.92;21.27;;;-3273.60;96.70;;;;;;4972401;28;20050;-74
2021/12/23 01:18:19;;;;;;;49.30;20.27;;;-3273.60;96.60;;;;;;4957607;28;20043;-74
2021/12/23 01:20:53;;;;;;;41.25;19.40;;;-3273.60;96.60;;;;;;4971537;28;20660;-75
2021/12/23 01:23:23;;;;;;;44.72;19.77;;;-3273.70;96.60;;;;;;4955441;28;20371;-76
2021/12/23 01:25:52;;;;;;;50.80;20.92;;;-3273.70;96.60;;;;;;4962365;28;20023;-77
2021/12/23 01:28:18;;;;;;;44.58;20.13;;;-3273.70;96.60;;;;;;4962704;28;20512;-78
2021/12/23 01:30:44;;;;;;;38.72;18.67;;;-3273.70;96.60;;;;;;4955598;28;20035;-75
2021/12/23 01:33:10;;;;;;;42.28;20.33;;;-3273.70;96.60;;;;;;4970723;28;20104;-74
2021/12/23 01:35:36;;;;;;;46.58;19.83;;;-3273.70;96.50;;;;;;4962350;28;20446;-76
2021/12/23 01:38:02;;;;;;;41.00;19.55;;;-3273.70;96.50;;;;;;4962835;28;20023;-74
2021/12/23 01:40:29;;;;;;;42.10;19.92;;;-3273.80;96.50;;;;;;4959529;28;20108;-75
2021/12/23 01:42:55;;;;;;;43.22;19.60;;;-3273.80;96.50;;;;;;4960433;28;20038;-74
2021/12/23 01:45:23;;;;;;;40.40;19.63;;;-3273.80;96.50;;;;;;4955850;28;20097;-74
2021/12/23 01:47:49;;;;;;;38.20;18.48;;;-3273.80;96.50;;;;;;4976612;28;20118;-73
2021/12/23 01:50:18;;;;;;;37.40;19.13;;;-3273.80;96.50;;;;;;4965425;28;20472;-74
2021/12/23 01:52:43;;;;;;;39.45;18.75;;;-3273.80;96.50;;;;;;4968370;28;20039;-74
2021/12/23 01:55:11;;;;;;;37.92;19.10;;;-3273.80;96.40;;;;;;4935101;28;20053;-73
2021/12/23 01:57:39;;;;;;;40.40;21.05;;;-3273.80;96.40;;;;;;4992607;22;20072;-74
2021/12/23 02:00:11;;;;;;;40.75;19.15;;;-3273.80;96.50;;;;;;4982732;28;20117;-73
2021/12/23 02:02:37;;;;;;;38.85;19.73;;;-3273.80;96.40;;;;;;4979513;28;20043;-73
2021/12/23 02:05:03;;;;;;;33.20;19.45;;;-3273.80;96.40;;;;;;4983043;28;20093;-74
2021/12/23 02:07:29;;;;;;;35.28;18.88;;;-3273.90;96.50;;;;;;4985447;28;20348;-74
2021/12/23 02:09:57;;;;;;;42.67;20.30;;;-3273.90;96.50;;;;;;4982857;28;20038;-74
2021/12/23 02:12:25;;;;;;;39.65;19.95;;;-3273.90;96.50;;;;;;4980784;28;20126;-73
2021/12/23 02:14:51;;;;;;;40.35;19.02;;;-3273.90;96.50;;;;;;4980346;28;20022;-73
2021/12/23 02:17:17;;;;;;;38.45;18.45;;;-3273.90;96.50;;;;;;4984106;28;20578;-74
2021/12/23 02:19:42;;;;;;;41.50;19.80;;;-3273.90;96.50;;;;;;4985434;28;20101;-74
2021/12/23 02:22:08;;;;;;;34.05;19.58;;;-3273.90;96.50;;;;;;4978588;28;20084;-74
2021/12/23 02:24:33;;;;;;;36.67;19.10;;;-3273.90;96.50;;;;;;4979182;28;20080;-75
2021/12/23 02:26:58;;;;;;;36.95;18.75;;;-3273.90;96.50;;;;;;4986399;28;20026;-73
2021/12/23 02:29:49;;;;;;;40.05;20.05;;;-3273.90;96.50;;;;;;4952093;28;20101;-75
2021/12/23 02:32:14;;;;;;;32.40;17.77;;;-3273.90;96.40;;;;;;4975667;28;20034;-74
2021/12/23 02:34:40;;;;;;;37.38;18.33;;;-3273.90;96.50;;;;;;4978147;28;20045;-74
2021/12/23 02:37:05;;;;;;;36.58;19.20;;;-3273.90;96.50;;;;;;4982664;28;20205;-74
2021/12/23 02:39:31;;;;;;;34.75;18.67;;;-3273.90;96.50;;;;;;4976450;28;20103;-74
2021/12/23 02:41:57;;;;;;;35.45;19.60;;;-3274.00;96.50;;;;;;4978525;28;20110;-74
2021/12/23 02:44:23;;;;;;;34.40;18.10;;;-3274.00;96.50;;;;;;4977444;28;20090;-74
2021/12/23 02:46:48;;;;;;;35.10;18.73;;;-3274.00;96.50;;;;;;4984158;28;20038;-74
2021/12/23 02:49:14;;;;;;;39.63;19.35;;;-3274.00;96.50;;;;;;4995351;28;20042;-74
2021/12/23 02:51:40;;;;;;;34.85;18.63;;;-3274.00;96.50;;;;;;4985298;28;20410;-74
2021/12/23 02:54:06;;;;;;;31.52;18.38;;;-3274.00;96.50;;;;;;4984951;28;20439;-73
2021/12/23 02:56:32;;;;;;;39.05;19.05;;;-3274.00;96.50;;;;;;4984930;28;20053;-74
2021/12/23 02:58:58;;;;;;;30.65;17.02;;;-3274.00;96.50;;;;;;4984067;28;20057;-74
2021/12/23 03:01:25;;;;;;;32.10;18.77;;;-3274.00;96.40;;;;;;4967358;28;20106;-74
2021/12/23 03:03:51;;;;;;;34.50;19.00;;;-3274.00;96.50;;;;;;4977687;28;20034;-73
2021/12/23 03:06:18;;;;;;;31.08;17.75;;;-3274.00;96.50;;;;;;4971600;28;20360;-73
2021/12/23 03:08:50;;;;;;;37.67;18.10;;;-3274.00;96.50;;;;;;4963405;28;20486;-73
2021/12/23 03:11:19;;;;;;;37.33;18.45;;;-3274.00;96.50;;;;;;4982721;28;20053;-74
2021/12/23 03:13:45;;;;;;;32.92;18.05;;;-3274.00;96.50;;;;;;4980159;28;20046;-72
2021/12/23 03:16:18;;;;;;;34.60;18.67;;;-3274.00;96.50;;;;;;4983640;28;20422;-74
2021/12/23 03:18:43;;;;;;;35.05;18.92;;;-3274.00;96.50;;;;;;5001123;28;20466;-74
2021/12/23 03:21:09;;;;;;;40.15;18.45;;;-3274.00;96.50;;;;;;4997137;28;20034;-74
2021/12/23 03:23:35;;;;;;;33.20;17.27;;;-3274.00;96.60;;;;;;4977957;28;20026;-74
2021/12/23 03:26:02;;;;;;;33.78;19.38;;;-3274.00;96.60;;;;;;4989061;28;20044;-74
2021/12/23 03:28:28;;;;;;;36.70;18.92;;;-3274.00;96.60;;;;;;4993084;28;20510;-74
2021/12/23 03:30:53;;;;;;;34.60;18.38;;;-3274.00;96.60;;;;;;4983940;28;20033;-73
2021/12/23 03:33:19;;;;;;;34.30;19.30;;;-3274.00;96.60;;;;;;4983609;28;20379;-74
2021/12/23 03:35:46;;;;;;;37.80;19.65;;;-3274.00;96.60;;;;;;4985833;28;20060;-73
2021/12/23 03:38:11;;;;;;;39.00;19.38;;;-3274.10;96.60;;;;;;4986426;28;20038;-73
2021/12/23 03:40:38;;;;;;;36.35;19.73;;;-3274.10;96.60;;;;;;4969683;28;20383;-74
2021/12/23 03:43:04;;;;;;;36.53;19.05;;;-3274.10;96.60;;;;;;4962535;28;20669;-74
2021/12/23 03:45:30;;;;;;;36.08;18.70;;;-3274.00;96.60;;;;;;4971116;28;20045;-73
2021/12/23 03:47:56;;;;;;;35.28;19.02;;;-3274.10;96.60;;;;;;4970070;28;20164;-73
2021/12/23 03:50:23;;;;;;;34.22;18.92;;;-3274.10;96.60;;;;;;4972623;28;20572;-73
2021/12/23 03:52:49;;;;;;;35.40;18.45;;;-3274.10;96.60;;;;;;4971118;28;20047;-74
2021/12/23 03:55:16;;;;;;;36.55;19.23;;;-3274.10;96.60;;;;;;4969270;28;20141;-73
2021/12/23 03:57:41;;;;;;;35.55;17.70;;;-3274.10;96.50;;;;;;4979471;28;20038;-74
2021/12/23 04:00:10;;;;;;;35.42;19.23;;;-3274.10;96.60;;;;;;4999021;28;20552;-74
2021/12/23 04:02:37;;;;;;;34.72;18.65;;;-3274.10;96.50;;;;;;4997471;28;20045;-73
2021/12/23 04:05:06;;;;;;;36.17;19.45;;;-3274.10;96.60;;;;;;5005551;28;20053;-73
2021/12/23 04:07:32;;;;;;;31.45;17.95;;;-3274.10;96.60;;;;;;5005686;28;20041;-73
2021/12/23 04:09:58;;;;;;;35.45;19.45;;;-3274.10;96.60;;;;;;5005294;28;20046;-73
2021/12/23 04:12:23;;;;;;;36.40;19.40;;;-3274.10;96.60;;;;;;5007148;28;20021;-73
2021/12/23 04:14:49;;;;;;;33.88;18.55;;;-3274.10;96.60;;;;;;4996456;28;20022;-73
2021/12/23 04:17:14;;;;;;;32.42;18.75;;;-3274.10;96.60;;;;;;5000381;28;20014;-73
2021/12/23 04:19:43;;;;;;;31.73;18.67;;;-3274.20;96.60;;;;;;5004061;28;20045;-75
2021/12/23 04:22:08;;;;;;;34.90;19.65;;;-3274.20;96.60;;;;;;5002432;28;20037;-73
2021/12/23 04:24:34;;;;;;;32.25;19.35;;;-3274.20;96.60;;;;;;4994680;28;20038;-75
2021/12/23 04:26:59;;;;;;;32.20;19.60;;;-3274.20;96.60;;;;;;5004822;28;20021;-73
2021/12/23 04:29:25;;;;;;;31.58;17.83;;;-3274.20;96.60;;;;;;5017521;28;20085;-73
2021/12/23 04:31:50;;;;;;;31.30;18.35;;;-3274.20;96.70;;;;;;4998994;28;20026;-73
2021/12/23 04:34:16;;;;;;;32.35;18.50;;;-3274.20;96.60;;;;;;5006306;28;20028;-73
2021/12/23 04:36:41;;;;;;;37.45;19.52;;;-3274.20;96.60;;;;;;5005492;28;20065;-74
2021/12/23 04:39:07;;;;;;;35.03;20.35;;;-3274.20;96.60;;;;;;5012432;28;20021;-73
2021/12/23 04:41:33;;;;;;;36.63;20.95;;;-3274.20;96.50;;;;;;5003869;28;20022;-73
2021/12/23 04:43:59;;;;;;;31.35;18.75;;;-3274.20;96.50;;;;;;5001346;28;20037;-73
2021/12/23 04:46:24;;;;;;;35.05;19.88;;;-3274.20;96.50;;;;;;5005090;28;20095;-73
2021/12/23 04:48:51;;;;;;;39.17;20.45;;;-3274.20;96.50;;;;;;5004748;28;20468;-73
2021/12/23 04:51:17;;;;;;;33.08;19.20;;;-3274.20;96.50;;;;;;4998493;28;20021;-73
2021/12/23 04:53:44;;;;;;;32.90;18.80;;;-3274.20;96.60;;;;;;5010409;28;20026;-73
2021/12/23 04:56:11;;;;;;;33.95;18.58;;;-3274.30;96.50;;;;;;5004871;28;20049;-73
2021/12/23 04:58:37;;;;;;;38.10;19.90;;;-3274.20;96.50;;;;;;4974405;28;20118;-73
2021/12/23 05:01:03;;;;;;;37.47;19.75;;;-3274.20;96.50;;;;;;5000993;28;20136;-75
2021/12/23 05:03:29;;;;;;;33.47;18.58;;;-3274.30;96.50;;;;;;4999830;28;20036;-75
2021/12/23 05:05:55;;;;;;;34.60;19.17;;;-3274.30;96.50;;;;;;5001246;28;20030;-74
2021/12/23 05:08:21;;;;;;;34.42;18.85;;;-3274.30;96.50;;;;;;5004349;28;20553;-75
2021/12/23 05:10:46;;;;;;;37.40;19.50;;;-3274.30;96.50;;;;;;5000712;28;20629;-74
2021/12/23 05:13:13;;;;;;;33.35;19.05;;;-3274.30;96.50;;;;;;5003193;28;20108;-75
2021/12/23 05:15:39;;;;;;;36.35;19.90;;;-3274.30;96.50;;;;;;5001480;28;20061;-75
2021/12/23 05:18:06;;;;;;;35.00;19.25;;;-3274.30;96.60;;;;;;5004585;28;20497;-75
2021/12/23 05:20:32;;;;;;;35.08;18.73;;;-3274.30;96.50;;;;;;4999719;28;20082;-76
2021/12/23 05:22:57;;;;;;;36.13;19.88;;;-3274.30;96.50;;;;;;5019167;28;20116;-76
2021/12/23 05:25:23;;;;;;;33.35;18.33;;;-3274.30;96.60;;;;;;5007449;28;20114;-75
2021/12/23 05:27:54;;;;;;;33.38;18.73;;;-3274.30;96.50;;;;;;5008323;28;20046;-76
2021/12/23 05:30:21;;;;;;;39.90;20.27;;;-3274.30;96.60;;;;;;4997303;28;20466;-76
2021/12/23 05:32:46;;;;;;;39.92;20.30;;;-3274.30;96.60;;;;;;5013345;28;20026;-76
2021/12/23 05:35:14;;;;;;;35.90;19.48;;;-3274.40;96.50;;;;;;5004929;28;20371;-76
2021/12/23 05:37:53;;;;;;;33.58;20.38;;;-3274.40;96.50;;;;;;4998061;28;20428;-75
2021/12/23 05:40:22;;;;;;;38.13;19.73;;;-3274.40;96.50;;;;;;4972193;28;20054;-75
2021/12/23 05:42:48;;;;;;;36.65;19.40;;;-3274.50;96.50;;;;;;5011798;28;20037;-74
2021/12/23 05:45:14;;;;;;;37.78;21.33;;;-3274.50;96.50;;;;;;5000516;28;20052;-76
2021/12/23 05:47:40;;;;;;;34.00;19.15;;;-3274.40;96.40;;;;;;5000067;28;20118;-76
2021/12/23 05:50:08;;;;;;;35.58;19.40;;;-3274.40;96.40;;;;;;4998605;28;20076;-75
2021/12/23 05:52:34;;;;;;;34.33;20.20;;;-3274.40;96.40;;;;;;4997527;28;20034;-75
2021/12/23 05:55:14;;;;;;;34.67;19.90;;;-3274.50;96.50;;;;;;5002065;28;20378;-76
2021/12/23 05:57:40;;;;;;;35.15;19.52;;;-3274.50;96.40;;;;;;4990009;28;20157;-77
2021/12/23 06:00:17;;;;;;;37.50;20.20;;;-3274.50;96.50;;;;;;5016607;28;20038;-77
2021/12/23 06:02:42;;;;;;;33.38;19.65;;;-3274.50;96.50;;;;;;5001189;28;20061;-76
2021/12/23 06:05:09;;;;;;;35.67;19.75;;;-3274.50;96.50;;;;;;5005342;28;20119;-74
2021/12/23 06:07:34;;;;;;;39.97;21.48;;;-3274.50;96.50;;;;;;5009027;28;20041;-75
2021/12/23 06:10:00;;;;;;;37.65;21.05;;;-3274.50;96.50;;;;;;5002470;28;20401;-74
2021/12/23 06:12:26;;;;;;;35.88;21.35;;;-3274.50;96.50;;;;;;4994073;28;20114;-74
2021/12/23 06:14:52;;;;;;;30.58;17.20;;;-3274.60;96.50;;;;;;4995087;28;20156;-74
2021/12/23 06:17:18;;;;;;;36.95;20.52;;;-3274.60;96.50;;;;;;5017173;28;20098;-75
2021/12/23 06:19:43;;;;;;;31.85;20.30;;;-3274.60;96.50;;;;;;5001948;28;20033;-74
2021/12/23 06:22:09;;;;;;;34.65;19.85;;;-3274.60;96.50;;;;;;4999729;28;20633;-75
2021/12/23 06:24:35;;;;;;;38.72;21.23;;;-3274.60;96.50;;;;;;5001576;28;20030;-76
2021/12/23 06:27:00;;;;;;;35.80;20.23;;;-3274.60;96.50;;;;;;4997984;28;20034;-76
2021/12/23 06:29:26;;;;;;;35.05;19.50;;;-3274.60;96.50;;;;;;5004897;28;20377;-73
2021/12/23 06:31:51;;;;;;;33.17;19.45;;;-3274.60;96.50;;;;;;5016670;28;20040;-75
2021/12/23 06:34:17;;;;;;;34.58;19.60;;;-3274.60;96.50;;;;;;5000833;28;20056;-75
2021/12/23 06:36:44;;;;;;;36.90;20.63;;;-3274.70;96.50;;;;;;4997023;28;20022;-75
2021/12/23 06:39:09;;;;;;;37.38;19.67;;;-3274.70;96.50;;;;;;5002701;28;20092;-76
2021/12/23 06:41:35;;;;;;;36.75;19.67;;;-3274.70;96.50;;;;;;5003868;28;20045;-75
2021/12/23 06:44:00;;;;;;;36.75;19.17;;;-3274.70;96.50;;;;;;5006964;28;20500;-76
2021/12/23 06:46:26;;;;;;;35.88;20.35;;;-3274.70;96.50;;;;;;4999240;28;20041;-75
2021/12/23 06:48:52;;;;;;;34.88;19.48;;;-3274.70;96.50;;;;;;4993612;28;20053;-75
2021/12/23 06:51:17;;;;;;;36.90;20.27;;;-3274.70;96.50;;;;;;5003309;28;20042;-75
2021/12/23 06:53:43;;;;;;;36.97;20.35;;;-3274.70;96.40;;;;;;5000968;28;20048;-75
2021/12/23 06:56:10;;;;;;;40.03;20.60;;;-3274.70;96.40;;;;;;4997554;28;20037;-76
2021/12/23 06:58:38;;;;;;;37.78;20.42;;;-3274.80;96.40;;;;;;4974859;28;20026;-76
2021/12/23 07:01:04;;;;;;;32.95;19.63;;;-3274.70;96.40;;;;;;4999970;28;20074;-76
2021/12/23 07:03:45;;;;;;;34.10;19.85;;;-3274.80;96.30;;;;;;5007150;28;20100;-76
2021/12/23 07:06:17;;;;;;;31.60;19.17;;;-3274.80;96.20;;;;;;5000226;28;20026;-75
2021/12/23 07:08:42;;;;;;;37.50;20.15;;;-3274.80;96.10;;;;;;5000198;28;20026;-76
2021/12/23 07:11:10;;;;;;;34.70;20.02;;;-3274.70;96.10;;;;;;4996205;28;20233;-76
2021/12/23 07:13:35;;;;;;;34.53;20.58;;;-3274.80;96.10;;;;;;5004712;28;20399;-75
2021/12/23 07:16:01;;;;;;;32.85;19.10;;;-3274.80;96.10;;;;;;5001243;28;20284;-76
2021/12/23 07:18:27;;;;;;;34.88;19.85;;;-3274.70;96.20;;;;;;5002841;28;20438;-76
2021/12/23 07:20:53;;;;;;;34.35;18.20;;;-3274.70;96.20;;;;;;5003616;28;20026;-75
2021/12/23 07:23:18;;;;;;;33.42;19.20;;;-3274.70;96.30;;;;;;5018918;28;20538;-76
2021/12/23 07:25:44;;;;;;;33.72;18.60;;;-3274.70;96.40;;;;;;5000636;28;20033;-76
2021/12/23 07:28:09;;;;;;;35.15;20.52;;;-3274.70;96.50;;;;;;5018191;28;20103;-77
2021/12/23 07:30:35;;;;;;;33.28;19.35;;;-3274.70;96.50;;;;;;4995598;28;20386;-76
2021/12/23 07:33:00;;;;;;;34.88;19.95;;;-3274.70;96.60;;;;;;5013117;28;20033;-78
2021/12/23 07:35:26;;;;;;;35.03;21.45;;;-3274.60;96.70;;;;;;4998184;28;20150;-76
2021/12/23 07:37:52;;;;;;;31.65;19.35;;;-3274.70;96.80;;;;;;5006017;28;20371;-77
2021/12/23 07:40:17;;;;;;;38.22;20.35;;;-3274.60;96.80;;;;;;5005437;28;20030;-76
2021/12/23 07:42:53;;;;;;;37.25;19.92;;;-3274.60;96.80;;;;;;5005101;28;20053;-76
2021/12/23 07:45:21;;;;;;;38.60;21.27;;;-3274.60;96.90;;;;;;5005329;28;20033;-76
2021/12/23 07:47:46;;;;;;;37.08;19.10;;;-3274.60;96.90;;;;;;5006071;28;20029;-75
2021/12/23 07:50:12;;;;;;;40.20;22.23;;;-3274.60;96.90;;;;;;5003794;28;20251;-76
2021/12/23 07:52:38;;;;;;;35.25;21.52;;;-3274.60;96.90;;;;;;5013605;28;20065;-76
2021/12/23 07:55:03;;;;;;;37.42;20.92;;;-3274.70;97.00;;;;;;5022479;28;20014;-76
2021/12/23 07:57:29;;;;;;;40.15;21.08;;;-3274.60;96.90;;;;;;5010475;28;20156;-76
2021/12/23 07:59:58;;;;;;;39.67;21.73;;;-3274.70;97.00;;;;;;4968209;28;20057;-76
2021/12/23 08:02:23;;;;;;;37.63;21.17;;;-3274.70;97.00;;;;;;5010932;28;20068;-76
2021/12/23 08:04:49;;;;;;;41.35;21.20;;;-3274.70;97.00;;;;;;5007936;28;20446;-76
2021/12/23 08:07:14;;;;;;;42.28;22.30;;;-3274.70;97.00;;;;;;5005283;28;20172;-76
2021/12/23 08:09:40;;;;;;;39.42;22.13;;;-3274.80;97.00;;;;;;5021952;28;20159;-76
2021/12/23 08:12:07;;;;;;;40.53;22.23;;;-3274.80;97.00;;;;;;5004106;28;20567;-77
2021/12/23 08:14:32;;;;;;;39.92;22.05;;;-3274.80;97.00;;;;;;5010181;28;20176;-76
2021/12/23 08:16:58;;;;;;;40.22;22.08;;;-3274.80;97.00;;;;;;5018679;28;20577;-75
2021/12/23 08:19:23;;;;;;;39.17;21.33;;;-3274.90;97.00;;;;;;5007401;28;20033;-77
2021/12/23 08:21:49;;;;;;;35.40;20.95;;;-3274.90;97.00;;;;;;5011184;28;20161;-77
2021/12/23 08:24:14;;;;;;;35.80;20.80;;;-3274.90;96.90;;;;;;5004486;28;20057;-76
2021/12/23 08:26:42;;;;;;;38.55;20.80;;;-3274.90;96.80;;;;;;5004609;28;20115;-79
2021/12/23 08:29:09;;;;;;;37.92;20.88;;;-3275.00;96.80;;;;;;5004525;28;20040;-76
2021/12/23 08:31:35;;;;;;;36.33;20.38;;;-3274.90;96.70;;;;;;5002584;28;20042;-76
2021/12/23 08:34:01;;;;;;;36.03;20.98;;;-3275.00;96.70;;;;;;5000723;28;20045;-78
2021/12/23 08:36:27;;;;;;;34.50;20.42;;;-3275.00;96.70;;;;;;5006069;28;20398;-76
2021/12/23 08:38:52;;;;;;;35.25;18.90;;;-3275.00;96.70;;;;;;5004256;28;20168;-76
2021/12/23 08:41:18;;;;;;;37.90;21.75;;;-3275.10;96.70;;;;;;5002782;28;20120;-76
2021/12/23 08:43:44;;;;;;;36.38;20.45;;;-3275.10;96.70;;;;;;5004306;28;20063;-77
2021/12/23 08:46:10;;;;;;;35.72;20.98;;;-3275.10;96.70;;;;;;5004430;28;20030;-77
2021/12/23 08:48:36;;;;;;;34.65;21.45;;;-3275.20;96.70;;;;;;5004019;28;20477;-77
2021/12/23 08:51:01;;;;;;;33.00;18.83;;;-3275.20;96.60;;;;;;4999056;28;20033;-77
2021/12/23 08:53:27;;;;;;;34.03;20.52;;;-3275.30;96.60;;;;;;5002112;28;20041;-77
2021/12/23 08:55:52;;;;;;;31.65;19.90;;;-3275.30;96.60;;;;;;4996985;28;20646;-77
2021/12/23 08:58:18;;;;;;;37.55;21.27;;;-3275.30;96.40;;;;;;4990914;28;20497;-78
2021/12/23 09:00:44;;;;;;;31.75;19.35;;;-3275.40;96.40;;;;;;4966222;28;22583;-76
2021/12/23 12:24:46;;;;;;;30.65;19.45;;;-3276.50;94.90;;;;;;5553624;22;20049;-75
2021/12/23 12:27:13;;;;;;;35.05;20.52;;;-3276.50;94.90;;;;;;5005078;28;20079;-75
2021/12/23 12:29:39;;;;;;;34.22;20.48;;;-3276.50;94.70;;;;;;4995400;28;20312;-76
2021/12/23 12:32:05;;;;;;;28.42;17.45;;;-3276.50;94.70;;;;;;5001183;28;20047;-76
2021/12/23 12:34:37;;;;;;;30.52;18.65;;;-3276.50;94.80;;;;;;4996176;28;20390;-75
2021/12/23 12:37:04;;;;;;;30.33;20.08;;;-3276.50;94.90;;;;;;5003999;28;20032;-77
2021/12/23 12:39:40;;;;;;;32.60;20.67;;;-3276.50;94.90;;;;;;4990122;28;20094;-76
2021/12/23 12:42:10;;;;;;;30.48;19.77;;;-3276.50;95.00;;;;;;4987655;28;20324;-75
2021/12/23 12:44:43;;;;;;;31.40;20.50;;;-3276.60;95.10;;;;;;4987206;28;20026;-74
2021/12/23 12:47:21;;;;;;;32.83;20.45;;;-3276.60;95.20;;;;;;4992310;28;20042;-76
2021/12/23 12:49:50;;;;;;;32.15;20.25;;;-3276.60;95.10;;;;;;5003600;28;20378;-75
2021/12/23 12:52:22;;;;;;;35.40;21.10;;;-3276.60;95.00;;;;;;4998839;28;20393;-75
2021/12/23 12:55:11;;;;;;;33.58;20.00;;;-3276.60;95.20;;;;;;5010562;28;20030;-74
2021/12/23 12:57:46;;;;;;;31.25;21.13;;;-3276.60;95.20;;;;;;5001849;28;20041;-76
2021/12/23 13:00:22;;;;;;;32.75;21.02;;;-3276.60;95.10;;;;;;4987539;28;20097;-76
2021/12/23 13:03:14;;;;;;;37.13;22.00;;;-3276.60;95.00;;;;;;4995800;28;20422;-76
2021/12/23 13:05:43;;;;;;;35.35;21.65;;;-3276.60;95.10;;;;;;4987906;28;20050;-76
2021/12/23 13:08:19;;;;;;;31.50;20.15;;;-3276.60;95.20;;;;;;4995227;28;20096;-75
2021/12/23 13:10:48;;;;;;;33.97;21.27;;;-3276.70;95.30;;;;;;4988395;28;20027;-75
2021/12/23 13:13:35;;;;;;;33.50;20.88;;;-3276.70;95.50;;;;;;4998657;28;20338;-75
2021/12/23 13:16:10;;;;;;;34.75;21.70;;;-3276.70;95.50;;;;;;4997300;28;20025;-74
2021/12/23 13:18:35;;;;;;;35.67;21.77;;;-3276.70;95.60;;;;;;5001051;28;20025;-75
2021/12/23 13:21:05;;;;;;;35.92;23.33;;;-3276.70;95.60;;;;;;4999085;28;20121;-75
2021/12/23 13:23:36;;;;;;;37.13;23.17;;;-3276.70;95.70;;;;;;4988829;28;20120;-75
2021/12/23 13:26:04;;;;;;;35.30;21.95;;;-3276.70;95.70;;;;;;4993741;28;20049;-73
2021/12/23 13:28:35;;;;;;;40.50;23.40;;;-3276.70;95.90;;;;;;4995360;28;20119;-74
2021/12/23 13:31:05;;;;;;;40.28;22.77;;;0.00;96.00;;;;;;4999101;28;20026;-72
2021/12/23 13:33:39;;;;;;;38.97;23.38;;;-3276.70;96.20;;;;;;4997382;28;20121;-73
2021/12/23 13:36:12;;;;;;;39.88;23.33;;;-3276.70;96.30;;;;;;5008390;28;20437;-70
2021/12/23 13:38:40;;;;;;;37.85;22.60;;;-3276.70;96.20;;;;;;4995424;28;20081;-72
2021/12/23 13:41:18;;;;;;;35.55;22.75;;;-3276.70;96.30;;;;;;4994467;28;20033;-72
2021/12/23 13:43:44;;;;;;;39.58;23.70;;;0.00;96.40;;;;;;4993392;28;20323;-72
2021/12/23 13:46:09;;;;;;;40.17;22.60;;;0.00;96.50;;;;;;4988542;28;20112;-72
2021/12/23 13:48:59;;;;;;;39.42;23.50;;;0.00;96.60;;;;;;4991711;28;20026;-72
2021/12/23 13:51:28;;;;;;;40.33;24.23;;;0.00;96.60;;;;;;4998412;28;20037;-72
2021/12/23 13:54:19;;;;;;;39.97;23.45;;;0.00;96.70;;;;;;5007116;28;20037;-72
2021/12/23 13:56:50;;;;;;;39.90;23.42;;;0.00;96.80;;;;;;4955041;28;20052;-72
2021/12/23 13:59:22;;;;;;;39.88;25.85;;;0.00;96.90;;;;;;4992256;28;20030;-73
2021/12/23 14:01:51;;;;;;;40.75;25.20;;;0.00;97.00;;;;;;4969758;28;20053;-73
2021/12/23 14:04:35;;;;;;;40.80;23.85;;;0.00;97.10;;;;;;4995138;28;20443;-74
2021/12/23 14:07:05;;;;;;;39.00;25.33;;;0.00;97.20;;;;;;5000017;28;20061;-73
2021/12/23 14:09:40;;;;;;;39.90;24.58;;;0.00;97.20;;;;;;4991072;28;20151;-74
2021/12/23 14:12:06;;;;;;;42.92;25.00;;;0.00;97.20;;;;;;4998859;28;20030;-73
2021/12/23 14:14:32;;;;;;;39.70;23.88;;;0.00;97.30;;;;;;4990366;28;20511;-74
2021/12/23 14:16:57;;;;;;;40.50;24.80;;;0.00;97.40;;;;;;4993562;28;20081;-74
2021/12/23 14:19:29;;;;;;;39.90;24.60;;;0.00;97.40;;;;;;4988601;28;20052;-73
2021/12/23 14:24:41;;;;;;;48.80;27.35;;;0.00;97.60;;;;;;4997894;28;20121;-74
2021/12/23 14:27:07;;;;;;;43.63;27.00;;;0.00;97.70;;;;;;4986384;28;20457;-73
2021/12/23 14:29:34;;;;;;;47.92;28.45;;;0.00;97.70;;;;;;4995040;28;20104;-73
2021/12/23 14:32:00;;;;;;;49.38;27.83;;;0.00;97.70;;;;;;4989223;28;20109;-73
2021/12/23 14:34:28;;;;;;;46.90;27.33;;;0.00;97.80;;;;;;4988204;28;20502;-73
2021/12/23 14:36:58;;;;;;;42.75;25.65;;;0.00;97.80;;;;;;4992213;28;20029;-74
2021/12/23 14:39:32;;;;;;;51.40;28.80;;;0.00;97.90;;;;;;4985957;28;20070;-73
2021/12/23 14:42:01;;;;;;;51.25;28.58;;;0.00;97.90;;;;;;4992137;28;20413;-72
2021/12/23 14:44:33;;;;;;;46.13;27.27;;;0.00;97.90;;;;;;4987338;28;20115;-73
2021/12/23 14:47:22;;;;;;;45.83;28.13;;;0.00;98.00;;;;;;4995067;28;20358;-72
2021/12/23 14:52:43;;;;;;;48.95;27.40;;;0.00;98.10;;;;;;4991933;28;20343;-72
2021/12/23 14:55:15;;;;;;;47.83;27.38;;;0.00;98.10;;;;;;4977539;28;20125;-72
2021/12/23 14:57:47;;;;;;;48.15;29.40;;;0.10;98.10;;;;;;4977652;28;20117;-72
2021/12/23 15:00:15;;;;;;;51.78;28.33;;;0.10;98.20;;;;;;4975924;28;20493;-74
2021/12/23 15:02:40;;;;;;;53.13;28.15;;;0.10;98.20;;;;;;4989556;28;20484;-73
2021/12/23 15:05:10;;;;;;;45.95;27.65;;;0.10;98.20;;;;;;5013438;28;20019;-72
2021/12/23 15:07:54;;;;;;;52.25;29.95;;;0.10;98.30;;;;;;4993727;28;20022;-73
2021/12/23 15:10:38;;;;;;;49.45;28.02;;;0.10;98.30;;;;;;4999026;28;20039;-75
2021/12/23 15:13:17;;;;;;;54.88;29.60;;;0.10;98.30;;;;;;4993799;28;20105;-73
2021/12/23 15:15:44;;;;;;;54.45;29.38;;;0.10;98.30;;;;;;4992166;28;20520;-73
2021/12/23 15:18:36;;;;;;;52.33;28.70;;;0.10;98.30;;;;;;4989403;28;20454;-72
2021/12/23 15:21:06;;;;;;;55.20;30.52;;;0.10;98.40;;;;;;4994986;28;20070;-73
2021/12/23 15:23:36;;;;;;;57.33;30.10;;;0.10;98.40;;;;;;4990803;28;20032;-73
2021/12/23 15:26:02;;;;;;;55.45;30.50;;;0.10;98.40;;;;;;4988511;28;20520;-73
2021/12/23 15:28:27;;;;;;;56.03;30.60;;;0.10;98.40;;;;;;4989428;28;20029;-72
2021/12/23 15:30:53;;;;;;;54.92;29.55;;;0.10;98.40;;;;;;4987709;28;20034;-73
2021/12/23 15:33:20;;;;;;;62.42;31.00;;;0.10;98.40;;;;;;4990271;28;20032;-73
2021/12/23 15:35:46;;;;;;;56.22;31.42;;;0.10;98.50;;;;;;4987223;28;20034;-73
2021/12/23 15:38:11;;;;;;;61.25;32.50;;;0.10;98.50;;;;;;4987132;28;20038;-73
2021/12/23 15:40:38;;;;;;;60.95;29.83;;;0.10;98.50;;;;;;4992213;28;20384;-72
2021/12/23 15:43:07;;;;;;;57.38;28.45;;;0.10;98.60;;;;;;4991615;28;20037;-73
2021/12/23 15:45:34;;;;;;;56.20;30.58;;;0.10;98.60;;;;;;5008144;28;20041;-73
2021/12/23 15:48:01;;;;;;;56.92;31.92;;;0.10;98.60;;;;;;4994073;28;20030;-73